createdAt,value
2017-09-12T00:00:02.477Z,13.1
2017-09-12T00:05:03.208Z,13.1
2017-09-12T00:10:02.834Z,13.1
2017-09-12T00:15:03.242Z,13.1
2017-09-12T00:20:02.708Z,13.1
2017-09-12T00:25:03.285Z,13.1
2017-09-12T00:30:02.774Z,12.8
2017-09-12T00:35:03.175Z,12.8
2017-09-12T00:40:02.579Z,13.1
2017-09-12T00:45:03.135Z,13.3
2017-09-12T00:50:02.606Z,13.3
2017-09-12T00:55:03.174Z,13.3
2017-09-12T01:00:02.718Z,13.1
2017-09-12T01:05:03.309Z,13.1
2017-09-12T01:10:02.837Z,13.1
2017-09-12T01:15:03.261Z,13.1
2017-09-12T01:20:02.685Z,13.1
2017-09-12T01:25:03.077Z,13.3
2017-09-12T01:30:02.561Z,13.1
2017-09-12T01:35:02.958Z,13.1
2017-09-12T01:40:02.578Z,13.1
2017-09-12T01:45:02.947Z,13.1
2017-09-12T01:50:02.518Z,13.1
2017-09-12T01:55:03.079Z,13.1
2017-09-12T02:00:02.464Z,12.8
2017-09-12T02:05:02.967Z,13.1
2017-09-12T02:10:02.423Z,12.8
2017-09-12T02:15:02.982Z,12.8
2017-09-12T02:20:03.386Z,12.8
2017-09-12T02:25:02.988Z,12.8
2017-09-12T02:30:02.460Z,12.8
2017-09-12T02:35:02.917Z,12.8
2017-09-12T02:40:03.352Z,12.8
2017-09-12T02:45:02.801Z,12.8
2017-09-12T02:50:03.226Z,12.8
2017-09-12T02:55:02.644Z,12.8
2017-09-12T03:00:03.103Z,12.8
2017-09-12T03:05:02.543Z,12.8
2017-09-12T03:10:03.210Z,12.8
2017-09-12T03:15:02.649Z,12.8
2017-09-12T03:20:03.217Z,12.8
2017-09-12T03:25:02.607Z,12.8
2017-09-12T03:30:03.011Z,12.8
2017-09-12T03:35:02.528Z,12.6
2017-09-12T03:40:03.137Z,12.6
2017-09-12T03:45:02.537Z,12.8
2017-09-12T03:50:03.196Z,12.8
2017-09-12T03:55:02.753Z,12.6
2017-09-12T04:00:03.382Z,12.6
2017-09-12T04:05:02.759Z,12.6
2017-09-12T04:10:03.169Z,12.6
2017-09-12T04:15:02.544Z,12.5
2017-09-12T04:20:03.025Z,12.5
2017-09-12T04:25:02.434Z,12.5
2017-09-12T04:30:02.873Z,12.5
2017-09-12T04:35:03.180Z,12.5
2017-09-12T04:40:02.679Z,12.3
2017-09-12T04:45:03.132Z,12.3
2017-09-12T04:50:02.513Z,12.3
2017-09-12T04:55:03.025Z,12.3
2017-09-12T05:00:02.446Z,12.3
2017-09-12T05:05:02.903Z,12.1
2017-09-12T05:10:02.502Z,12.1
2017-09-12T05:15:02.999Z,12.3
2017-09-12T05:20:02.636Z,12.1
2017-09-12T05:25:03.145Z,12.1
2017-09-12T05:30:02.669Z,12.3
2017-09-12T05:35:03.076Z,12.3
2017-09-12T05:40:02.591Z,12.5
2017-09-12T05:45:02.962Z,12.5
2017-09-12T05:50:03.287Z,12.5
2017-09-12T05:55:02.941Z,12.5
2017-09-12T06:00:02.415Z,12.6
2017-09-12T06:05:02.949Z,12.6
2017-09-12T06:10:02.566Z,12.6
2017-09-12T06:15:03.040Z,12.6
2017-09-12T06:20:02.510Z,12.8
2017-09-12T06:25:03.068Z,12.8
2017-09-12T06:30:02.501Z,12.8
2017-09-12T06:35:03.088Z,12.8
2017-09-12T06:40:02.610Z,12.8
2017-09-12T06:45:03.182Z,13.1
2017-09-12T06:50:02.622Z,13.1
2017-09-12T06:55:03.170Z,13.3
2017-09-12T07:00:02.519Z,13.3
2017-09-12T07:05:02.984Z,13.5
2017-09-12T07:10:02.479Z,13.6
2017-09-12T07:15:03.045Z,13.5
2017-09-12T07:20:02.689Z,13.6
2017-09-12T07:25:03.231Z,13.8
2017-09-12T07:30:02.663Z,13.8
2017-09-12T07:35:03.084Z,14.0
2017-09-12T07:40:02.589Z,14.1
2017-09-12T07:45:03.162Z,14.1
2017-09-12T07:50:02.583Z,14.3
2017-09-12T07:55:03.075Z,15.0
2017-09-12T08:00:02.619Z,15.1
2017-09-12T08:05:03.103Z,14.6
2017-09-12T08:10:02.604Z,15.1
2017-09-12T08:15:03.193Z,15.6
2017-09-12T08:20:02.721Z,15.1
2017-09-12T08:25:03.235Z,15.8
2017-09-12T08:30:02.715Z,15.8
2017-09-12T08:35:03.125Z,15.5
2017-09-12T08:40:02.546Z,15.6
2017-09-12T08:45:03.114Z,16.2
2017-09-12T08:50:02.666Z,15.5
2017-09-12T08:55:03.183Z,15.6
2017-09-12T09:00:02.569Z,16.2
2017-09-12T09:05:03.105Z,16.2
2017-09-12T09:10:02.587Z,16.2
2017-09-12T09:15:03.110Z,16.3
2017-09-12T09:20:02.599Z,16.0
2017-09-12T09:25:03.032Z,17.3
2017-09-12T09:30:02.590Z,17.3
2017-09-12T09:35:03.313Z,16.7
2017-09-12T09:40:02.855Z,16.7
2017-09-12T09:45:03.242Z,17.7
2017-09-12T09:50:02.642Z,17.8
2017-09-12T09:55:03.017Z,17.2
2017-09-12T10:00:02.621Z,16.3
2017-09-12T10:05:03.030Z,16.6
2017-09-12T10:10:02.651Z,17.7
2017-09-12T10:15:03.043Z,16.7
2017-09-12T10:20:02.529Z,17.1
2017-09-12T10:25:03.051Z,18.2
2017-09-12T10:30:02.523Z,18.7
2017-09-12T10:35:03.128Z,18.7
2017-09-12T10:40:02.656Z,19.0
2017-09-12T10:45:03.083Z,19.1
2017-09-12T10:50:02.756Z,18.2
2017-09-12T10:55:03.209Z,18.8
2017-09-12T11:00:02.721Z,18.6
2017-09-12T11:05:03.239Z,19.0
2017-09-12T11:10:02.714Z,18.7
2017-09-12T11:15:03.108Z,17.3
2017-09-12T11:20:02.581Z,17.7
2017-09-12T11:25:02.981Z,18.2
2017-09-12T11:30:02.421Z,18.5
2017-09-12T11:35:02.879Z,19.3
2017-09-12T11:40:03.284Z,19.1
2017-09-12T11:45:02.652Z,17.8
2017-09-12T11:50:03.156Z,17.7
2017-09-12T11:55:02.692Z,18.1
2017-09-12T12:00:03.193Z,19.7
2017-09-12T12:05:02.783Z,18.2
2017-09-12T12:10:02.438Z,18.6
2017-09-12T12:15:03.206Z,20.0
2017-09-12T12:20:02.662Z,15.8
2017-09-12T12:25:03.192Z,11.0
2017-09-12T12:30:02.704Z,10.8
2017-09-12T12:35:03.130Z,11.0
2017-09-12T12:40:02.557Z,11.3
2017-09-12T12:45:03.020Z,12.1
2017-09-12T12:50:02.518Z,13.8
2017-09-12T12:55:02.924Z,14.1
2017-09-12T13:00:03.353Z,15.0
2017-09-12T13:05:02.999Z,14.5
2017-09-12T13:10:02.433Z,15.0
2017-09-12T13:15:02.857Z,15.0
2017-09-12T13:20:03.342Z,14.3
2017-09-12T13:25:02.833Z,14.8
2017-09-12T13:30:03.361Z,15.1
2017-09-12T13:35:02.842Z,18.2
2017-09-12T13:40:03.261Z,19.0
2017-09-12T13:45:02.726Z,20.0
2017-09-12T13:50:03.266Z,20.2
2017-09-12T13:55:02.790Z,19.5
2017-09-12T14:00:03.356Z,18.7
2017-09-12T14:05:02.984Z,18.5
2017-09-12T14:10:02.550Z,18.8
2017-09-12T14:15:03.151Z,20.2
2017-09-12T14:20:02.693Z,19.2
2017-09-12T14:25:03.278Z,19.0
2017-09-12T14:30:02.678Z,17.8
2017-09-12T14:35:03.209Z,16.7
2017-09-12T14:40:02.658Z,18.7
2017-09-12T14:45:03.241Z,18.2
2017-09-12T14:50:02.983Z,17.2
2017-09-12T14:55:03.329Z,16.6
2017-09-12T15:00:02.774Z,16.3
2017-09-12T15:05:03.338Z,17.8
2017-09-12T15:10:02.895Z,18.1
2017-09-12T15:15:02.554Z,17.7
2017-09-12T15:20:03.019Z,18.1
2017-09-12T15:25:02.473Z,19.0
2017-09-12T15:30:02.962Z,19.0
2017-09-12T15:35:02.565Z,18.2
2017-09-12T15:40:03.259Z,18.7
2017-09-12T15:45:02.731Z,18.7
2017-09-12T15:50:03.375Z,18.5
2017-09-12T15:55:02.788Z,17.7
2017-09-12T16:00:03.156Z,18.2
2017-09-12T16:05:02.552Z,18.8
2017-09-12T16:10:03.086Z,18.1
2017-09-12T16:15:02.607Z,18.2
2017-09-12T16:20:02.998Z,17.3
2017-09-12T16:25:02.487Z,17.2
2017-09-12T16:30:02.880Z,17.1
2017-09-12T16:35:02.447Z,17.0
2017-09-12T16:40:03.049Z,17.0
2017-09-12T16:45:02.473Z,16.7
2017-09-12T16:50:02.889Z,16.7
2017-09-12T16:55:03.322Z,16.6
2017-09-12T17:00:02.868Z,16.3
2017-09-12T17:05:02.502Z,16.3
2017-09-12T17:10:03.047Z,16.3
2017-09-12T17:15:02.524Z,16.2
2017-09-12T17:20:08.019Z,16.0
2017-09-12T17:25:02.567Z,15.8
2017-09-12T17:30:03.020Z,15.6
2017-09-12T17:35:02.650Z,15.3
2017-09-12T17:40:03.158Z,15.1
2017-09-12T17:45:02.621Z,15.1
2017-09-12T17:50:03.029Z,14.8
2017-09-12T17:55:02.463Z,14.6
2017-09-12T18:00:02.956Z,14.3
2017-09-12T18:05:02.523Z,14.1
2017-09-12T18:10:03.070Z,14.1
2017-09-12T18:15:02.540Z,14.0
2017-09-12T18:20:03.139Z,13.6
2017-09-12T18:25:02.623Z,13.6
2017-09-12T18:30:03.035Z,13.6
2017-09-12T18:35:02.587Z,13.6
2017-09-12T18:40:03.151Z,13.5
2017-09-12T18:45:02.543Z,13.5
2017-09-12T18:55:02.657Z,13.3
2017-09-12T19:00:03.161Z,13.1
2017-09-12T19:05:02.775Z,13.1
2017-09-12T19:10:03.397Z,13.1
2017-09-12T19:15:02.757Z,13.1
2017-09-12T19:20:03.405Z,12.8
2017-09-12T19:25:02.820Z,12.8
2017-09-12T19:30:03.383Z,12.8
2017-09-12T19:35:02.806Z,12.8
2017-09-12T19:40:02.383Z,12.8
2017-09-12T19:45:02.946Z,12.8
2017-09-12T19:50:03.363Z,12.8
2017-09-12T19:55:02.781Z,13.1
2017-09-12T20:00:03.199Z,13.1
2017-09-12T20:10:02.551Z,13.1
2017-09-12T20:15:02.982Z,13.1
2017-09-12T20:20:02.448Z,13.3
2017-09-12T20:25:02.960Z,13.1
2017-09-12T20:30:03.377Z,13.3
2017-09-12T20:35:02.770Z,13.5
2017-09-12T20:40:03.354Z,13.3
2017-09-12T20:45:02.781Z,13.1
2017-09-12T20:50:03.277Z,13.1
2017-09-12T20:55:02.762Z,13.1
2017-09-12T21:00:03.458Z,13.1
2017-09-12T21:05:02.846Z,13.1
2017-09-12T21:10:03.347Z,13.1
2017-09-12T21:15:02.715Z,12.8
2017-09-12T21:20:03.329Z,12.8
2017-09-12T21:25:02.730Z,12.8
2017-09-12T21:30:03.531Z,12.8
2017-09-12T21:35:02.934Z,12.8
2017-09-12T21:40:02.424Z,12.8
2017-09-12T21:45:03.038Z,12.8
2017-09-12T21:50:02.528Z,12.8
2017-09-12T21:55:02.945Z,12.8
2017-09-12T22:00:02.461Z,12.8
2017-09-12T22:05:03.022Z,12.8
2017-09-12T22:10:02.616Z,12.8
2017-09-12T22:15:03.028Z,12.8
2017-09-12T22:20:02.552Z,12.8
2017-09-12T22:25:02.996Z,12.8
2017-09-12T22:30:02.488Z,12.8
2017-09-12T22:35:02.925Z,12.8
2017-09-12T22:40:02.410Z,13.1
2017-09-12T22:45:02.854Z,13.1
2017-09-12T22:50:03.382Z,13.1
2017-09-12T22:55:02.921Z,13.1
2017-09-12T23:00:03.760Z,12.8
2017-09-12T23:05:02.773Z,13.1
2017-09-12T23:10:02.389Z,13.1
2017-09-12T23:15:02.925Z,13.1
2017-09-12T23:20:03.363Z,13.1
2017-09-12T23:25:02.775Z,13.1
2017-09-12T23:30:03.361Z,13.3
2017-09-12T23:35:02.861Z,13.5
2017-09-12T23:40:02.368Z,13.5
2017-09-12T23:45:02.885Z,13.5
2017-09-12T23:50:02.442Z,13.5
2017-09-12T23:55:03.003Z,13.5
